Terminal Aerodrome Forecast
Issued by NWS

Home | Current Version | Previous Version | Text Only | Print | Product List | Glossary On
Versions: 1 2 3 4 5 6 7 8 9 10 11 12 13 14 15 16 17 18 19 20 21
000
FTUS43 KDLH 211900 AAA
TAFHYR
TAF AMD
KHYR 211923Z 2119/2218 35009G15KT P6SM SCT035
     FM220100 00000KT P6SM SCT030
      TEMPO 2210/2213 1SM BR SCT006
     FM221500 27007KT P6SM FEW025=

USA.gov is the U.S. government's official web portal to all federal, state and local government web resources and services.